createdAt,value
2023-05-09T00:00:57.977Z,7.35
2023-05-09T00:03:25.939Z,5.38
2023-05-09T00:05:54.037Z,4.93
2023-05-09T00:08:22.196Z,5.70
2023-05-09T00:10:50.067Z,5.22
2023-05-09T00:13:18.144Z,5.32
2023-05-09T00:15:46.880Z,5.35
2023-05-09T00:20:44.435Z,5.43
2023-05-09T00:23:12.591Z,4.68
2023-05-09T00:25:40.514Z,4.78
2023-05-09T00:28:08.733Z,4.47
2023-05-09T00:30:36.639Z,3.85
2023-05-09T00:33:04.713Z,5.60
2023-05-09T00:35:32.638Z,4.90
2023-05-09T00:38:00.628Z,5.40
2023-05-09T00:40:28.613Z,5.07
2023-05-09T00:42:58.892Z,3.92
2023-05-09T00:45:27.047Z,4.47
2023-05-09T00:47:55.916Z,4.82
2023-05-09T00:52:55.003Z,4.30
2023-05-09T00:55:23.497Z,5.28
2023-05-09T00:57:51.700Z,3.80
2023-05-09T01:00:19.830Z,3.67
2023-05-09T01:02:53.244Z,4.35
2023-05-09T01:05:25.229Z,4.70
2023-05-09T01:08:36.169Z,4.65
2023-05-09T01:11:15.369Z,3.83
2023-05-09T01:13:54.990Z,4.28
2023-05-09T01:16:39.901Z,4.15
2023-05-09T01:19:26.868Z,3.75
2023-05-09T01:21:59.635Z,4.60
2023-05-09T01:25:00.670Z,3.88
2023-05-09T01:27:44.775Z,4.10
2023-05-09T01:30:14.235Z,3.92
2023-05-09T01:32:44.195Z,4.25
2023-05-09T01:35:14.984Z,4.25
2023-05-09T01:37:45.540Z,4.00
2023-05-09T01:40:16.937Z,5.22
2023-05-09T01:42:51.646Z,3.58
2023-05-09T01:45:21.032Z,4.65
2023-05-09T01:47:50.690Z,3.15
2023-05-09T01:50:20.368Z,4.03
2023-05-09T01:52:53.608Z,4.28
2023-05-09T01:55:27.510Z,3.58
2023-05-09T01:57:57.908Z,4.03
2023-05-09T02:00:26.329Z,4.50
2023-05-09T02:02:56.472Z,3.65
2023-05-09T02:05:28.636Z,4.07
2023-05-09T02:07:58.692Z,4.13
2023-05-09T02:10:30.995Z,3.67
2023-05-09T02:12:58.898Z,3.58
2023-05-09T02:15:27.682Z,4.57
2023-05-09T02:17:55.616Z,3.90
2023-05-09T02:20:23.780Z,4.68
2023-05-09T02:22:51.778Z,5.65
2023-05-09T02:25:20.958Z,4.13
2023-05-09T02:27:49.069Z,5.28
2023-05-09T02:30:25.472Z,3.55
2023-05-09T02:33:07.518Z,4.00
2023-05-09T02:35:38.139Z,3.85
2023-05-09T02:38:07.301Z,4.22
2023-05-09T02:40:36.738Z,3.75
2023-05-09T02:43:04.636Z,3.72
2023-05-09T02:45:32.764Z,3.85
2023-05-09T02:48:00.873Z,3.15
2023-05-09T02:50:28.844Z,3.33
2023-05-09T02:54:42.339Z,3.30
2023-05-09T02:57:10.526Z,4.13
2023-05-09T02:59:38.508Z,3.53
2023-05-09T03:02:06.732Z,4.05
2023-05-09T03:04:34.861Z,3.45
2023-05-09T03:07:02.930Z,4.00
2023-05-09T03:09:33.811Z,5.55
2023-05-09T03:12:02.759Z,4.45
2023-05-09T03:14:31.648Z,5.53
2023-05-09T03:16:59.936Z,5.03
2023-05-09T03:19:33.856Z,5.47
2023-05-09T03:22:01.906Z,6.85
2023-05-09T03:24:33.003Z,5.47
2023-05-09T03:27:01.081Z,6.32
2023-05-09T03:29:29.130Z,5.45
2023-05-09T03:31:57.088Z,5.13
2023-05-09T03:34:25.183Z,5.03
2023-05-09T03:36:53.195Z,4.53
2023-05-09T03:39:21.800Z,5.72
2023-05-09T03:41:54.484Z,5.13
2023-05-09T03:44:22.455Z,5.63
2023-05-09T03:46:50.628Z,6.43
2023-05-09T03:49:18.768Z,4.32
2023-05-09T03:51:49.196Z,3.63
2023-05-09T03:54:17.815Z,4.78
2023-05-09T03:56:45.943Z,3.83
2023-05-09T03:59:13.803Z,4.47
2023-05-09T04:01:42.688Z,4.18
2023-05-09T04:04:10.920Z,3.65
2023-05-09T04:06:39.386Z,3.35
2023-05-09T04:09:09.665Z,3.47
2023-05-09T04:11:38.082Z,3.92
2023-05-09T04:14:10.950Z,3.65
2023-05-09T04:16:38.927Z,4.22
2023-05-09T04:19:07.459Z,6.40
2023-05-09T04:21:36.835Z,4.47
2023-05-09T04:24:06.481Z,2.72
2023-05-09T04:26:41.268Z,2.75
2023-05-09T04:29:12.864Z,3.80
2023-05-09T04:31:41.287Z,3.03
2023-05-09T04:34:12.083Z,2.72
2023-05-09T04:39:10.614Z,2.55
2023-05-09T04:41:44.046Z,2.63
2023-05-09T04:44:12.201Z,2.15
2023-05-09T04:46:40.652Z,1.80
2023-05-09T04:49:09.701Z,1.42
2023-05-09T04:51:37.644Z,2.10
2023-05-09T04:54:07.066Z,2.45
2023-05-09T04:56:38.607Z,1.75
2023-05-09T04:59:06.841Z,1.00
2023-05-09T05:01:35.145Z,1.92
2023-05-09T05:04:03.352Z,1.17
2023-05-09T05:06:33.398Z,1.17
2023-05-09T05:09:01.602Z,5.10
2023-05-09T05:11:29.527Z,3.45
2023-05-09T05:13:57.651Z,4.30
2023-05-09T05:16:26.081Z,18.70
2023-05-09T05:18:54.283Z,1.52
2023-05-09T05:23:50.952Z,3.25
2023-05-09T05:26:18.999Z,2.20
2023-05-09T05:28:47.127Z,3.30
2023-05-09T05:31:15.484Z,1.50
2023-05-09T05:33:43.387Z,3.15
2023-05-09T05:36:11.494Z,3.13
2023-05-09T05:38:39.585Z,1.23
2023-05-09T05:41:11.414Z,0.70
2023-05-09T05:43:41.493Z,0.57
2023-05-09T05:46:09.892Z,0.75
2023-05-09T05:48:38.808Z,1.50
2023-05-09T05:51:06.961Z,0.85
2023-05-09T05:53:36.900Z,2.63
2023-05-09T05:56:05.374Z,5.05
2023-05-09T05:58:34.213Z,0.80
2023-05-09T06:01:02.921Z,1.80
2023-05-09T06:03:32.429Z,1.48
2023-05-09T06:06:03.977Z,0.75
2023-05-09T06:08:32.942Z,1.75
2023-05-09T06:11:01.665Z,1.23
2023-05-09T06:13:29.764Z,0.98
2023-05-09T06:16:17.939Z,1.08
2023-05-09T06:18:49.342Z,1.00
2023-05-09T06:21:17.408Z,1.45
2023-05-09T06:24:01.356Z,3.20
2023-05-09T06:26:33.763Z,0.98
2023-05-09T06:29:01.725Z,0.68
2023-05-09T06:31:30.080Z,0.73
2023-05-09T06:33:58.080Z,3.17
2023-05-09T06:36:26.521Z,1.23
2023-05-09T06:38:54.853Z,0.52
2023-05-09T06:41:22.836Z,0.60
2023-05-09T06:43:51.269Z,0.68
2023-05-09T06:46:19.714Z,0.50
2023-05-09T06:48:47.861Z,0.65
2023-05-09T06:51:16.598Z,1.25
2023-05-09T06:56:12.594Z,1.27
2023-05-09T06:58:40.750Z,1.58
2023-05-09T07:01:08.808Z,0.90
2023-05-09T07:03:36.973Z,1.02
2023-05-09T07:06:05.312Z,1.38
2023-05-09T07:08:33.375Z,0.90
2023-05-09T07:11:01.456Z,1.20
2023-05-09T07:13:29.396Z,1.00
2023-05-09T07:15:58.055Z,2.28
2023-05-09T07:18:25.956Z,0.50
2023-05-09T07:20:53.910Z,1.25
2023-05-09T07:23:22.018Z,0.65
2023-05-09T07:25:49.887Z,0.75
2023-05-09T07:28:17.964Z,0.75
2023-05-09T07:30:46.182Z,2.00
2023-05-09T07:33:14.208Z,0.93
2023-05-09T07:35:42.141Z,2.03
2023-05-09T07:38:11.311Z,1.33
2023-05-09T07:40:39.395Z,3.47
2023-05-09T07:43:07.518Z,3.03
2023-05-09T07:45:35.725Z,2.15
2023-05-09T07:48:04.051Z,0.75
2023-05-09T07:50:32.098Z,1.30
2023-05-09T07:53:00.391Z,1.65
2023-05-09T07:55:28.505Z,0.80
2023-05-09T07:57:56.791Z,1.45
2023-05-09T08:00:25.003Z,0.98
2023-05-09T08:02:53.759Z,0.60
2023-05-09T08:05:24.687Z,2.33
2023-05-09T08:07:52.670Z,1.73
2023-05-09T08:10:22.112Z,1.10
2023-05-09T08:12:50.181Z,1.58
2023-05-09T08:15:18.477Z,1.27
2023-05-09T08:17:46.565Z,1.58
2023-05-09T08:20:14.875Z,1.88
2023-05-09T08:22:42.913Z,1.95
2023-05-09T08:25:11.160Z,1.27
2023-05-09T08:27:39.091Z,2.38
2023-05-09T08:30:07.735Z,2.03
2023-05-09T08:32:35.620Z,2.65
2023-05-09T08:35:04.114Z,1.60
2023-05-09T08:37:32.082Z,1.98
2023-05-09T08:40:00.047Z,1.73
2023-05-09T08:42:30.051Z,1.75
2023-05-09T08:44:58.935Z,2.10
2023-05-09T08:47:27.532Z,1.92
2023-05-09T08:49:55.681Z,2.45
2023-05-09T08:52:23.813Z,1.88
2023-05-09T08:54:52.305Z,1.73
2023-05-09T08:57:20.563Z,2.50
2023-05-09T08:59:49.932Z,1.55
2023-05-09T09:02:18.346Z,1.85
2023-05-09T09:04:47.064Z,1.63
2023-05-09T09:07:16.243Z,1.42
2023-05-09T09:09:49.097Z,1.73
2023-05-09T09:12:18.582Z,1.63
2023-05-09T09:14:54.216Z,1.45
2023-05-09T09:17:28.377Z,2.65
2023-05-09T09:20:00.487Z,2.05
2023-05-09T09:22:34.133Z,2.20
2023-05-09T09:25:02.754Z,1.77
2023-05-09T09:27:32.510Z,2.30
2023-05-09T09:30:07.911Z,2.65
2023-05-09T09:32:36.622Z,2.15
2023-05-09T09:37:43.794Z,3.83
2023-05-09T09:40:12.839Z,3.35
2023-05-09T09:42:45.737Z,3.13
2023-05-09T09:45:16.759Z,3.85
2023-05-09T09:47:46.787Z,3.30
2023-05-09T09:50:17.466Z,2.95
2023-05-09T09:52:53.870Z,3.88
2023-05-09T09:55:24.327Z,3.22
2023-05-09T09:57:52.873Z,2.05
2023-05-09T10:00:27.800Z,3.15
2023-05-09T10:05:26.926Z,2.10
2023-05-09T10:08:00.923Z,4.50
2023-05-09T10:10:33.491Z,3.42
2023-05-09T10:13:10.457Z,2.83
2023-05-09T10:15:52.179Z,3.10
2023-05-09T10:18:30.167Z,3.03
2023-05-09T10:21:04.012Z,3.80
2023-05-09T10:23:34.663Z,5.05
2023-05-09T10:26:29.066Z,3.75
2023-05-09T10:29:00.874Z,2.72
2023-05-09T10:31:33.016Z,2.25
2023-05-09T10:34:05.846Z,3.05
2023-05-09T10:36:34.504Z,3.00
2023-05-09T10:39:02.813Z,2.40
2023-05-09T10:41:31.578Z,4.13
2023-05-09T10:44:00.220Z,5.20
2023-05-09T10:46:28.728Z,3.15
2023-05-09T10:48:56.877Z,3.78
2023-05-09T10:51:25.612Z,5.10
2023-05-09T10:56:32.594Z,3.05
2023-05-09T10:59:02.918Z,3.72
2023-05-09T11:01:35.192Z,4.25
2023-05-09T11:04:14.823Z,4.45
2023-05-09T11:06:47.956Z,5.90
2023-05-09T11:09:39.292Z,3.70
2023-05-09T11:12:15.177Z,4.28
2023-05-09T11:14:48.881Z,4.43
2023-05-09T11:17:23.210Z,5.25
2023-05-09T11:19:51.590Z,4.63
2023-05-09T11:22:42.479Z,5.65
2023-05-09T11:25:15.377Z,6.18
2023-05-09T11:27:46.264Z,6.93
2023-05-09T11:30:19.361Z,7.22
2023-05-09T11:32:55.807Z,5.97
2023-05-09T11:35:26.946Z,7.30
2023-05-09T11:38:07.982Z,8.43
2023-05-09T11:40:36.060Z,6.35
2023-05-09T11:43:04.024Z,8.38
2023-05-09T11:45:33.766Z,7.97
2023-05-09T11:48:02.363Z,7.22
2023-05-09T11:50:30.527Z,10.02
2023-05-09T11:53:07.387Z,8.10
2023-05-09T11:55:38.224Z,9.38
2023-05-09T11:58:07.660Z,8.98
2023-05-09T12:00:37.510Z,9.35
2023-05-09T12:03:06.326Z,9.45
2023-05-09T12:08:07.251Z,6.15
2023-05-09T12:10:39.258Z,7.95
2023-05-09T12:13:07.382Z,8.50
2023-05-09T12:15:39.103Z,7.68
2023-05-09T12:18:09.178Z,8.32
2023-05-09T12:20:44.940Z,7.10
2023-05-09T12:23:14.773Z,9.20
2023-05-09T12:25:53.044Z,9.93
2023-05-09T12:28:25.313Z,8.27
2023-05-09T12:30:54.463Z,8.18
2023-05-09T12:33:22.745Z,8.10
2023-05-09T12:36:03.521Z,8.88
2023-05-09T12:38:32.150Z,6.18
2023-05-09T12:41:10.723Z,7.45
2023-05-09T12:43:49.657Z,7.25
2023-05-09T12:46:22.337Z,5.93
2023-05-09T12:48:50.430Z,6.63
2023-05-09T12:51:22.659Z,4.95
2023-05-09T12:53:51.035Z,5.40
2023-05-09T12:56:21.062Z,5.90
2023-05-09T12:58:51.458Z,5.63
2023-05-09T13:01:21.249Z,3.85
2023-05-09T13:03:54.010Z,5.05
2023-05-09T13:06:24.479Z,7.85
2023-05-09T13:09:06.533Z,4.95
2023-05-09T13:11:35.704Z,5.55
2023-05-09T13:16:32.336Z,4.45
2023-05-09T13:19:01.899Z,4.55
2023-05-09T13:21:29.887Z,3.53
2023-05-09T13:23:57.910Z,3.90
2023-05-09T13:26:27.555Z,4.90
2023-05-09T13:28:56.174Z,4.63
2023-05-09T13:31:24.553Z,4.28
2023-05-09T13:33:52.938Z,6.38
2023-05-09T13:36:21.260Z,5.68
2023-05-09T13:38:49.385Z,4.43
2023-05-09T13:41:21.088Z,4.78
2023-05-09T13:43:49.107Z,6.07
2023-05-09T13:46:17.166Z,3.90
2023-05-09T13:48:45.482Z,4.18
2023-05-09T13:51:14.136Z,3.90
2023-05-09T13:53:42.264Z,5.00
2023-05-09T13:56:10.167Z,5.97
2023-05-09T13:58:38.383Z,4.30
2023-05-09T14:01:07.732Z,2.88
2023-05-09T14:03:36.021Z,2.67
2023-05-09T14:06:04.621Z,4.22
2023-05-09T14:08:33.307Z,4.03
2023-05-09T14:11:02.075Z,4.40
2023-05-09T14:13:32.253Z,3.45
2023-05-09T14:16:00.571Z,4.15
2023-05-09T14:18:28.545Z,6.20
2023-05-09T14:20:56.989Z,6.53
2023-05-09T14:23:25.341Z,4.78
2023-05-09T14:25:53.593Z,2.92
2023-05-09T14:28:22.381Z,3.90
2023-05-09T14:30:50.443Z,4.47
2023-05-09T14:33:18.540Z,4.15
2023-05-09T14:35:46.509Z,2.55
2023-05-09T14:38:14.614Z,2.40
2023-05-09T14:40:42.581Z,2.90
2023-05-09T14:43:10.789Z,2.58
2023-05-09T14:45:39.460Z,5.78
2023-05-09T14:48:07.756Z,5.15
2023-05-09T14:50:35.844Z,5.20
2023-05-09T14:53:04.093Z,2.97
2023-05-09T14:55:32.678Z,2.42
2023-05-09T14:58:00.563Z,2.90
2023-05-09T15:00:29.472Z,3.97
2023-05-09T15:05:26.076Z,3.25
2023-05-09T15:07:54.315Z,2.83
2023-05-09T15:10:22.552Z,3.25
2023-05-09T15:12:50.452Z,2.95
2023-05-09T15:15:20.909Z,3.30
2023-05-09T15:17:49.427Z,4.07
2023-05-09T15:20:20.821Z,3.97
2023-05-09T15:22:51.068Z,5.32
2023-05-09T15:25:30.039Z,4.13
2023-05-09T15:27:59.747Z,6.20
2023-05-09T15:30:28.721Z,4.65
2023-05-09T15:32:56.916Z,3.00
2023-05-09T15:35:25.404Z,4.20
2023-05-09T15:37:54.933Z,3.05
2023-05-09T15:40:23.211Z,3.25
2023-05-09T15:42:51.636Z,3.53
2023-05-09T15:45:20.695Z,7.80
2023-05-09T15:47:49.327Z,5.43
2023-05-09T15:50:18.134Z,8.52
2023-05-09T15:52:46.753Z,6.18
2023-05-09T15:55:14.996Z,4.25
2023-05-09T15:57:45.499Z,3.85
2023-05-09T16:00:16.783Z,6.65
2023-05-09T16:02:45.523Z,6.60
2023-05-09T16:05:13.903Z,3.33
2023-05-09T16:07:47.191Z,4.30
2023-05-09T16:10:16.566Z,5.60
2023-05-09T16:12:45.051Z,10.38
2023-05-09T16:15:13.090Z,5.45
2023-05-09T16:17:41.730Z,8.00
2023-05-09T16:20:13.948Z,6.55
2023-05-09T16:22:43.076Z,5.35
2023-05-09T16:27:39.631Z,7.75
2023-05-09T16:30:08.633Z,5.32
2023-05-09T16:32:37.088Z,4.97
2023-05-09T16:35:06.209Z,3.97
2023-05-09T16:37:35.575Z,8.35
2023-05-09T16:40:04.882Z,6.25
2023-05-09T16:42:33.450Z,5.50
2023-05-09T16:45:02.148Z,6.15
2023-05-09T16:47:30.598Z,5.88
2023-05-09T16:49:59.516Z,6.95
2023-05-09T16:52:27.775Z,6.35
2023-05-09T16:54:56.353Z,6.53
2023-05-09T16:57:24.780Z,4.18
2023-05-09T16:59:54.313Z,5.38
2023-05-09T17:02:23.201Z,4.82
2023-05-09T17:04:52.255Z,5.88
2023-05-09T17:09:49.931Z,6.70
2023-05-09T17:12:18.715Z,7.97
2023-05-09T17:14:48.249Z,6.47
2023-05-09T17:17:18.016Z,5.53
2023-05-09T17:19:46.383Z,4.90
2023-05-09T17:22:14.793Z,10.07
2023-05-09T17:24:43.214Z,17.30
2023-05-09T17:27:11.804Z,7.63
2023-05-09T17:29:40.180Z,9.70
2023-05-09T17:32:09.010Z,6.82
2023-05-09T17:34:38.178Z,9.38
2023-05-09T17:37:07.639Z,8.15
2023-05-09T17:39:39.452Z,11.40
2023-05-09T17:42:08.119Z,11.57
2023-05-09T17:44:36.772Z,7.47
2023-05-09T17:47:05.475Z,7.07
2023-05-09T17:49:34.146Z,6.45
2023-05-09T17:52:02.516Z,7.53
2023-05-09T17:54:31.145Z,11.00
2023-05-09T17:57:02.178Z,9.85
2023-05-09T17:59:30.614Z,11.95
2023-05-09T18:01:59.094Z,9.82
2023-05-09T18:04:30.740Z,8.02
2023-05-09T18:06:59.170Z,10.07
2023-05-09T18:09:28.348Z,9.10
2023-05-09T18:11:56.895Z,10.25
2023-05-09T18:14:25.429Z,9.40
2023-05-09T18:16:53.937Z,10.10
2023-05-09T18:19:22.375Z,8.57
2023-05-09T18:21:51.161Z,8.38
2023-05-09T18:24:21.646Z,9.23
2023-05-09T18:26:50.598Z,10.52
2023-05-09T18:29:19.253Z,8.43
2023-05-09T18:31:47.725Z,8.52
2023-05-09T18:34:16.168Z,11.32
2023-05-09T18:36:44.752Z,10.68
2023-05-09T18:39:14.450Z,9.13
2023-05-09T18:41:43.686Z,10.38
2023-05-09T18:46:40.319Z,8.55
2023-05-09T18:49:10.027Z,8.48
2023-05-09T18:51:38.618Z,8.77
2023-05-09T18:54:08.338Z,10.80
2023-05-09T18:56:39.743Z,9.57
2023-05-09T18:59:10.101Z,7.57
2023-05-09T19:01:38.607Z,7.28
2023-05-09T19:04:07.371Z,6.90
2023-05-09T19:06:36.113Z,9.45
2023-05-09T19:11:33.263Z,7.22
2023-05-09T19:14:02.357Z,7.80
2023-05-09T19:16:31.677Z,7.13
2023-05-09T19:19:01.507Z,6.97
2023-05-09T19:21:30.190Z,7.38
2023-05-09T19:23:58.669Z,7.00
2023-05-09T19:26:27.131Z,7.07
2023-05-09T19:28:55.826Z,7.72
2023-05-09T19:31:25.761Z,7.03
2023-05-09T19:33:54.323Z,7.20
2023-05-09T19:36:22.974Z,6.28
2023-05-09T19:38:51.370Z,6.32
2023-05-09T19:41:20.471Z,9.05
2023-05-09T19:46:19.704Z,8.35
2023-05-09T19:48:48.188Z,8.10
2023-05-09T19:51:16.843Z,7.05
2023-05-09T19:53:45.268Z,6.97
2023-05-09T19:56:14.122Z,6.75
2023-05-09T19:58:42.666Z,7.25
2023-05-09T20:01:11.135Z,7.25
2023-05-09T20:03:41.081Z,17.40
2023-05-09T20:06:10.043Z,23.17
2023-05-09T20:08:38.020Z,13.45
2023-05-09T20:11:06.379Z,15.05
2023-05-09T20:13:34.846Z,26.00
2023-05-09T20:16:04.526Z,13.23
2023-05-09T20:18:33.712Z,15.50
2023-05-09T20:21:02.694Z,10.73
2023-05-09T20:23:31.526Z,15.35
2023-05-09T20:26:00.027Z,7.25
2023-05-09T20:28:28.432Z,6.47
2023-05-09T20:30:56.666Z,5.10
2023-05-09T20:33:24.765Z,5.75
2023-05-09T20:35:52.889Z,6.40
2023-05-09T20:38:21.234Z,5.55
2023-05-09T20:40:49.330Z,5.07
2023-05-09T20:43:17.241Z,4.78
2023-05-09T20:45:45.375Z,4.82
2023-05-09T20:48:13.958Z,5.65
2023-05-09T20:50:41.910Z,5.00
2023-05-09T20:53:09.959Z,4.70
2023-05-09T20:55:38.207Z,3.15
2023-05-09T20:58:06.395Z,3.83
2023-05-09T21:00:34.511Z,5.53
2023-05-09T21:03:02.933Z,5.32
2023-05-09T21:05:31.046Z,4.57
2023-05-09T21:07:59.126Z,3.70
2023-05-09T21:10:27.366Z,5.28
2023-05-09T21:12:55.741Z,4.65
2023-05-09T21:15:23.949Z,3.83
2023-05-09T21:17:51.954Z,4.03
2023-05-09T21:20:20.177Z,3.13
2023-05-09T21:22:48.197Z,3.22
2023-05-09T21:25:17.654Z,2.78
2023-05-09T21:27:45.498Z,3.50
2023-05-09T21:30:13.836Z,2.47
2023-05-09T21:32:41.971Z,4.85
2023-05-09T21:35:12.907Z,1.70
2023-05-09T21:37:41.174Z,1.88
2023-05-09T21:40:09.864Z,4.43
2023-05-09T21:42:40.286Z,3.03
2023-05-09T21:45:08.904Z,6.53
2023-05-09T21:47:39.839Z,10.68
2023-05-09T21:50:08.337Z,10.82
2023-05-09T21:52:36.243Z,3.42
2023-05-09T21:55:04.524Z,1.98
2023-05-09T21:57:32.468Z,1.65
2023-05-09T22:00:01.712Z,1.88
2023-05-09T22:02:29.874Z,1.50
2023-05-09T22:04:58.071Z,2.38
2023-05-09T22:07:26.024Z,1.50
2023-05-09T22:09:54.310Z,2.33
2023-05-09T22:12:23.255Z,2.40
2023-05-09T22:19:52.971Z,2.05
2023-05-09T22:22:21.711Z,2.22
2023-05-09T22:24:49.975Z,2.53
2023-05-09T22:27:17.920Z,2.67
2023-05-09T22:29:46.752Z,1.95
2023-05-09T22:32:14.736Z,1.98
2023-05-09T22:34:42.710Z,2.80
2023-05-09T22:37:10.650Z,2.20
2023-05-09T22:39:39.490Z,3.20
2023-05-09T22:42:10.021Z,1.88
2023-05-09T22:44:39.271Z,2.00
2023-05-09T22:47:09.860Z,2.63
2023-05-09T22:49:37.833Z,3.08
2023-05-09T22:52:19.974Z,2.28
2023-05-09T22:54:47.911Z,1.90
2023-05-09T22:57:18.368Z,3.00
2023-05-09T22:59:47.008Z,2.50
2023-05-09T23:02:15.018Z,6.53
2023-05-09T23:04:43.022Z,5.22
2023-05-09T23:07:11.001Z,4.97
2023-05-09T23:09:39.296Z,3.30
2023-05-09T23:12:09.800Z,4.30
2023-05-09T23:14:38.294Z,4.38
2023-05-09T23:17:06.173Z,4.28
2023-05-09T23:19:34.067Z,5.28
2023-05-09T23:22:02.033Z,6.88
2023-05-09T23:24:29.880Z,5.35
2023-05-09T23:26:58.257Z,4.68
2023-05-09T23:29:26.308Z,5.13
2023-05-09T23:31:54.384Z,4.55
2023-05-09T23:34:22.496Z,6.40
2023-05-09T23:36:50.356Z,4.88
2023-05-09T23:39:18.651Z,5.70
2023-05-09T23:41:46.527Z,5.90
2023-05-09T23:44:15.009Z,6.03
2023-05-09T23:46:42.945Z,5.45
2023-05-09T23:49:13.357Z,4.22
2023-05-09T23:51:41.450Z,5.45
2023-05-09T23:54:09.256Z,3.95
2023-05-09T23:56:37.288Z,5.13
2023-05-09T23:59:05.314Z,4.43
